createdAt,value
2019-03-05T00:00:36.673Z,25.20
2019-03-05T00:03:09.725Z,25.30
2019-03-05T00:05:43.039Z,25.30
2019-03-05T00:08:15.745Z,25.40
2019-03-05T00:10:48.135Z,25.50
2019-03-05T00:13:20.477Z,25.50
2019-03-05T00:15:53.767Z,25.70
2019-03-05T00:18:26.528Z,25.80
2019-03-05T00:20:58.824Z,25.90
2019-03-05T00:23:34.171Z,26.00
2019-03-05T00:26:06.813Z,26.00
2019-03-05T00:28:41.943Z,26.10
2019-03-05T00:31:16.807Z,26.30
2019-03-05T00:33:51.525Z,26.60
2019-03-05T00:36:26.235Z,26.60
2019-03-05T00:39:01.276Z,26.70
2019-03-05T00:41:37.049Z,26.70
2019-03-05T00:44:11.860Z,26.80
2019-03-05T00:46:46.810Z,27.00
2019-03-05T00:49:22.157Z,27.20
2019-03-05T00:51:57.402Z,27.30
2019-03-05T00:54:32.210Z,27.40
2019-03-05T00:57:06.683Z,27.50
2019-03-05T00:59:41.780Z,27.70
2019-03-05T01:02:16.837Z,27.90
2019-03-05T01:04:51.660Z,28.00
2019-03-05T01:07:24.948Z,28.20
2019-03-05T01:09:57.737Z,28.30
2019-03-05T01:12:30.323Z,28.30
2019-03-05T01:15:03.741Z,28.40
2019-03-05T01:17:36.454Z,28.50
2019-03-05T01:20:11.677Z,28.60
2019-03-05T01:22:43.789Z,28.70
2019-03-05T01:25:18.328Z,28.80
2019-03-05T01:27:50.607Z,29.00
2019-03-05T01:30:25.432Z,29.00
2019-03-05T01:32:58.974Z,29.10
2019-03-05T01:35:32.786Z,29.20
2019-03-05T01:38:05.429Z,29.30
2019-03-05T01:40:38.750Z,29.40
2019-03-05T01:43:11.291Z,29.50
2019-03-05T01:45:43.979Z,29.60
2019-03-05T01:48:16.844Z,29.70
2019-03-05T01:50:49.489Z,29.90
2019-03-05T01:53:23.025Z,29.90
2019-03-05T01:55:55.903Z,30.20
2019-03-05T01:58:28.274Z,30.40
2019-03-05T02:01:01.087Z,30.40
2019-03-05T02:03:34.136Z,30.30
2019-03-05T02:08:37.678Z,30.50
2019-03-05T02:11:11.870Z,30.50
2019-03-05T02:13:44.608Z,30.70
2019-03-05T02:16:17.586Z,30.60
2019-03-05T02:18:49.988Z,30.70
2019-03-05T02:21:22.225Z,30.70
2019-03-05T02:23:56.865Z,30.80
2019-03-05T02:26:31.698Z,31.00
2019-03-05T02:29:06.774Z,30.90
2019-03-05T02:31:41.625Z,31.10
2019-03-05T02:34:16.130Z,31.00
2019-03-05T02:36:51.214Z,31.50
2019-03-05T02:39:26.206Z,31.60
2019-03-05T02:42:01.552Z,31.60
2019-03-05T02:44:36.091Z,31.70
2019-03-05T02:47:10.752Z,31.80
2019-03-05T02:49:45.849Z,31.70
2019-03-05T02:52:20.404Z,32.00
2019-03-05T02:54:55.177Z,32.30
2019-03-05T02:57:26.677Z,32.40
2019-03-05T02:59:59.301Z,32.40
2019-03-05T03:02:34.039Z,32.40
2019-03-05T03:05:09.296Z,32.30
2019-03-05T03:07:41.411Z,32.50
2019-03-05T03:10:16.297Z,32.70
2019-03-05T03:12:48.817Z,32.90
2019-03-05T03:15:21.835Z,32.90
2019-03-05T03:17:54.164Z,32.60
2019-03-05T03:20:27.188Z,32.90
2019-03-05T03:22:59.617Z,33.00
2019-03-05T03:25:32.230Z,33.10
2019-03-05T03:28:04.623Z,33.60
2019-03-05T03:30:36.934Z,33.50
2019-03-05T03:33:09.355Z,33.50
2019-03-05T03:35:42.074Z,33.60
2019-03-05T03:38:14.405Z,33.30
2019-03-05T03:40:47.174Z,33.40
2019-03-05T03:43:19.494Z,33.60
2019-03-05T03:45:52.165Z,33.60
2019-03-05T03:48:24.512Z,33.80
2019-03-05T03:50:57.155Z,34.10
2019-03-05T03:53:29.420Z,34.20
2019-03-05T03:56:02.469Z,34.10
2019-03-05T03:58:34.940Z,34.20
2019-03-05T04:01:08.685Z,34.20
2019-03-05T04:03:40.760Z,34.30
2019-03-05T04:06:13.235Z,34.20
2019-03-05T04:08:45.432Z,34.10
2019-03-05T04:11:18.207Z,34.50
2019-03-05T04:13:50.941Z,34.50
2019-03-05T04:16:23.587Z,34.90
2019-03-05T04:18:56.419Z,34.60
2019-03-05T04:21:28.954Z,34.50
2019-03-05T04:24:01.269Z,34.80
2019-03-05T04:26:52.563Z,34.80
2019-03-05T04:29:25.224Z,34.70
2019-03-05T04:31:57.785Z,35.10
2019-03-05T04:34:30.294Z,35.00
2019-03-05T04:37:02.701Z,35.20
2019-03-05T04:39:35.925Z,35.10
2019-03-05T04:42:08.623Z,35.00
2019-03-05T04:44:42.444Z,35.50
2019-03-05T04:47:14.914Z,35.60
2019-03-05T04:49:48.407Z,35.60
2019-03-05T04:52:22.726Z,35.60
2019-03-05T04:54:55.334Z,35.70
2019-03-05T04:57:28.126Z,35.30
2019-03-05T05:00:00.484Z,36.00
2019-03-05T05:02:34.126Z,36.10
2019-03-05T05:05:07.453Z,36.00
2019-03-05T05:07:40.296Z,36.40
2019-03-05T05:10:12.869Z,36.40
2019-03-05T05:26:48.273Z,36.90
2019-03-05T05:29:21.152Z,36.40
2019-03-05T05:31:53.927Z,36.80
2019-03-05T05:34:26.494Z,36.70
2019-03-05T05:37:00.090Z,36.70
2019-03-05T05:39:35.130Z,36.90
2019-03-05T05:42:07.621Z,37.00
2019-03-05T05:44:40.148Z,36.70
2019-03-05T05:47:12.464Z,36.80
2019-03-05T05:49:44.735Z,37.10
2019-03-05T05:52:18.018Z,36.90
2019-03-05T05:54:50.559Z,36.90
2019-03-05T05:57:23.241Z,37.20
2019-03-05T05:59:56.786Z,37.20
2019-03-05T06:02:29.515Z,37.00
2019-03-05T06:05:02.012Z,37.30
2019-03-05T06:07:34.316Z,37.10
2019-03-05T06:10:09.510Z,37.50
2019-03-05T06:12:41.598Z,37.30
2019-03-05T06:15:15.844Z,37.40
2019-03-05T06:17:48.501Z,37.50
2019-03-05T06:20:21.091Z,37.80
2019-03-05T06:22:53.545Z,37.40
2019-03-05T06:25:26.225Z,37.40
2019-03-05T06:27:58.601Z,37.60
2019-03-05T06:30:33.995Z,37.60
2019-03-05T06:33:26.345Z,37.80
2019-03-05T06:35:58.962Z,37.00
2019-03-05T06:38:31.287Z,36.70
2019-03-05T06:41:03.544Z,37.00
2019-03-05T06:43:36.035Z,36.40
2019-03-05T06:46:08.660Z,37.00
2019-03-05T06:48:41.146Z,37.10
2019-03-05T06:51:13.838Z,37.10
2019-03-05T06:53:47.426Z,37.00
2019-03-05T06:56:24.477Z,37.10
2019-03-05T06:58:57.094Z,37.30
2019-03-05T07:01:29.963Z,37.70
2019-03-05T07:04:02.448Z,37.40
2019-03-05T07:06:37.414Z,37.10
2019-03-05T07:09:12.563Z,36.70
2019-03-05T07:11:47.853Z,37.40
2019-03-05T07:14:23.213Z,37.40
2019-03-05T07:16:58.235Z,37.50
2019-03-05T07:19:33.685Z,37.40
2019-03-05T07:22:08.816Z,37.60
2019-03-05T07:24:43.272Z,37.10
2019-03-05T07:27:17.827Z,36.50
2019-03-05T07:29:50.236Z,36.90
2019-03-05T07:32:22.921Z,37.00
2019-03-05T07:34:55.155Z,37.30
2019-03-05T07:37:27.719Z,37.70
2019-03-05T07:40:00.682Z,38.10
2019-03-05T07:42:36.040Z,38.00
2019-03-05T07:45:10.673Z,37.40
2019-03-05T07:47:44.061Z,37.40
2019-03-05T07:50:17.102Z,37.20
2019-03-05T07:52:49.662Z,37.40
2019-03-05T07:55:22.071Z,37.40
2019-03-05T07:57:54.907Z,37.70
2019-03-05T08:00:27.607Z,37.50
2019-03-05T08:02:59.901Z,37.50
2019-03-05T08:05:32.584Z,37.50
2019-03-05T08:08:07.316Z,37.20
2019-03-05T08:10:39.874Z,37.60
2019-03-05T08:13:14.801Z,37.60
2019-03-05T08:16:02.044Z,37.90
2019-03-05T08:18:25.632Z,38.10
2019-03-05T08:20:58.292Z,37.70
2019-03-05T08:23:31.109Z,37.30
2019-03-05T08:26:03.680Z,37.40
2019-03-05T08:28:36.415Z,37.40
2019-03-05T08:31:08.929Z,37.60
2019-03-05T08:33:41.745Z,37.70
2019-03-05T08:36:14.162Z,37.50
2019-03-05T08:38:46.389Z,37.40
2019-03-05T08:41:19.212Z,37.10
2019-03-05T08:43:54.168Z,37.00
2019-03-05T08:46:25.895Z,37.40
2019-03-05T08:48:58.389Z,37.20
2019-03-05T08:51:31.662Z,36.80
2019-03-05T08:54:04.381Z,36.90
2019-03-05T08:56:36.695Z,36.60
2019-03-05T08:59:09.599Z,36.60
2019-03-05T09:01:42.200Z,36.70
2019-03-05T09:04:16.333Z,37.00
2019-03-05T09:06:49.487Z,37.10
2019-03-05T09:09:21.990Z,36.90
2019-03-05T09:11:54.555Z,36.60
2019-03-05T09:14:27.197Z,36.80
2019-03-05T09:16:59.789Z,36.50
2019-03-05T09:19:32.306Z,36.60
2019-03-05T09:22:04.644Z,36.30
2019-03-05T09:24:36.996Z,36.30
2019-03-05T09:27:09.877Z,36.30
2019-03-05T09:29:42.090Z,36.30
2019-03-05T09:32:14.725Z,36.30
2019-03-05T09:34:46.807Z,36.20
2019-03-05T09:37:20.138Z,36.30
2019-03-05T09:39:52.272Z,36.20
2019-03-05T09:42:24.932Z,36.10
2019-03-05T09:44:57.624Z,36.00
2019-03-05T09:47:30.371Z,36.00
2019-03-05T09:50:03.124Z,36.00
2019-03-05T09:52:35.980Z,35.90
2019-03-05T09:55:11.113Z,35.90
2019-03-05T09:57:44.104Z,35.80
2019-03-05T10:00:18.716Z,35.80
2019-03-05T10:02:51.548Z,35.80
2019-03-05T10:05:24.442Z,35.90
2019-03-05T10:07:57.287Z,35.80
2019-03-05T10:10:30.964Z,35.70
2019-03-05T10:13:04.655Z,35.50
2019-03-05T10:15:37.149Z,35.40
2019-03-05T10:18:13.001Z,35.20
2019-03-05T10:20:43.780Z,35.10
2019-03-05T10:23:16.490Z,35.00
2019-03-05T10:25:49.115Z,35.00
2019-03-05T10:28:23.011Z,35.00
2019-03-05T10:30:56.045Z,34.90
2019-03-05T10:33:28.578Z,34.90
2019-03-05T10:36:01.131Z,34.90
2019-03-05T10:38:33.532Z,34.80
2019-03-05T10:41:06.292Z,34.80
2019-03-05T10:43:38.844Z,34.60
2019-03-05T10:46:11.594Z,34.60
2019-03-05T10:48:43.962Z,34.60
2019-03-05T10:51:16.469Z,34.50
2019-03-05T10:53:49.004Z,34.50
2019-03-05T10:56:21.585Z,34.40
2019-03-05T10:58:54.040Z,34.30
2019-03-05T11:01:26.514Z,34.20
2019-03-05T11:03:58.989Z,34.20
2019-03-05T11:06:31.377Z,34.10
2019-03-05T11:09:03.994Z,34.00
2019-03-05T11:11:37.435Z,34.00
2019-03-05T11:14:11.036Z,33.90
2019-03-05T11:16:43.292Z,33.80
2019-03-05T11:19:34.817Z,33.80
2019-03-05T11:22:07.290Z,33.70
2019-03-05T11:24:39.528Z,33.70
2019-03-05T11:27:12.057Z,33.60
2019-03-05T11:29:44.979Z,33.60
2019-03-05T11:32:17.572Z,33.50
2019-03-05T11:34:49.922Z,33.40
2019-03-05T11:37:22.627Z,33.30
2019-03-05T11:39:56.247Z,33.30
2019-03-05T11:42:28.817Z,33.20
2019-03-05T11:45:07.483Z,33.20
2019-03-05T11:47:36.074Z,33.10
2019-03-05T11:50:10.855Z,32.90
2019-03-05T11:52:43.331Z,32.80
2019-03-05T11:55:18.498Z,32.70
2019-03-05T11:57:50.837Z,32.40
2019-03-05T12:00:26.944Z,32.30
2019-03-05T12:02:59.652Z,32.20
2019-03-05T12:05:32.203Z,32.10
2019-03-05T12:08:04.606Z,32.00
2019-03-05T12:10:37.337Z,31.90
2019-03-05T12:13:09.833Z,31.90
2019-03-05T12:15:43.737Z,31.80
2019-03-05T12:18:28.390Z,31.70
2019-03-05T12:21:00.913Z,31.70
2019-03-05T12:23:34.675Z,31.60
2019-03-05T12:26:07.284Z,31.50
2019-03-05T12:28:42.176Z,31.50
2019-03-05T12:31:13.615Z,31.40
2019-03-05T12:33:46.421Z,31.40
2019-03-05T12:36:18.839Z,31.30
2019-03-05T12:38:51.301Z,31.30
2019-03-05T12:41:23.788Z,31.20
2019-03-05T12:43:56.099Z,31.10
2019-03-05T12:46:29.730Z,31.10
2019-03-05T12:49:02.283Z,31.10
2019-03-05T12:51:34.751Z,31.10
2019-03-05T12:54:07.063Z,31.00
2019-03-05T12:56:39.438Z,31.00
2019-03-05T12:59:11.806Z,31.00
2019-03-05T13:01:44.815Z,30.90
2019-03-05T13:04:17.036Z,30.80
2019-03-05T13:06:49.523Z,30.80
2019-03-05T13:09:22.193Z,30.80
2019-03-05T13:11:54.419Z,30.70
2019-03-05T13:14:27.187Z,30.70
2019-03-05T13:16:59.462Z,30.60
2019-03-05T13:19:31.866Z,30.60
2019-03-05T13:22:04.931Z,30.60
2019-03-05T13:24:38.064Z,30.60
2019-03-05T13:27:10.456Z,30.50
2019-03-05T13:29:42.739Z,30.50
2019-03-05T13:32:16.820Z,30.30
2019-03-05T13:34:48.868Z,30.40
2019-03-05T13:37:24.895Z,30.40
2019-03-05T13:39:58.160Z,30.30
2019-03-05T13:42:33.179Z,30.30
2019-03-05T13:45:05.357Z,30.20
2019-03-05T13:47:41.624Z,30.20
2019-03-05T13:50:24.864Z,30.10
2019-03-05T13:53:00.277Z,30.10
2019-03-05T13:55:35.197Z,30.00
2019-03-05T13:58:09.968Z,30.00
2019-03-05T14:00:42.796Z,30.00
2019-03-05T14:03:17.942Z,30.00
2019-03-05T14:05:52.453Z,29.80
2019-03-05T14:08:28.047Z,29.90
2019-03-05T14:11:00.358Z,29.90
2019-03-05T14:13:33.889Z,29.80
2019-03-05T14:16:09.097Z,29.70
2019-03-05T14:18:41.775Z,29.70
2019-03-05T14:21:14.188Z,29.70
2019-03-05T14:23:47.261Z,29.60
2019-03-05T14:26:20.155Z,29.60
2019-03-05T14:28:53.276Z,29.60
2019-03-05T14:31:28.004Z,29.50
2019-03-05T14:34:00.999Z,29.50
2019-03-05T14:36:33.992Z,29.40
2019-03-05T14:39:10.538Z,29.40
2019-03-05T14:41:44.600Z,29.30
2019-03-05T14:44:18.349Z,29.30
2019-03-05T14:47:05.568Z,29.20
2019-03-05T14:49:38.971Z,29.20
2019-03-05T14:52:12.573Z,29.20
2019-03-05T14:54:45.900Z,29.20
2019-03-05T14:57:18.791Z,29.20
2019-03-05T14:59:51.855Z,29.10
2019-03-05T15:02:37.665Z,29.10
2019-03-05T15:05:11.843Z,29.10
2019-03-05T15:07:45.030Z,29.10
2019-03-05T15:10:18.270Z,29.10
2019-03-05T15:12:51.798Z,29.10
2019-03-05T15:15:27.636Z,29.10
2019-03-05T15:18:00.738Z,29.10
2019-03-05T15:20:33.672Z,29.00
2019-03-05T15:23:07.381Z,29.00
2019-03-05T15:25:40.540Z,29.00
2019-03-05T15:28:13.515Z,29.00
2019-03-05T15:30:46.636Z,29.00
2019-03-05T15:33:20.763Z,29.00
2019-03-05T15:35:54.164Z,28.90
2019-03-05T15:38:27.636Z,28.90
2019-03-05T15:41:02.165Z,28.90
2019-03-05T15:43:34.575Z,28.80
2019-03-05T15:46:07.309Z,28.70
2019-03-05T15:48:39.509Z,28.70
2019-03-05T15:51:11.647Z,28.60
2019-03-05T15:56:16.339Z,28.50
2019-03-05T15:58:48.614Z,28.50
2019-03-05T16:01:22.544Z,28.50
2019-03-05T16:03:55.009Z,28.40
2019-03-05T16:06:30.045Z,28.40
2019-03-05T16:09:03.287Z,28.40
2019-03-05T16:11:36.606Z,28.30
2019-03-05T16:14:09.138Z,28.30
2019-03-05T16:16:42.011Z,28.30
2019-03-05T16:19:16.564Z,28.30
2019-03-05T16:21:48.328Z,28.30
2019-03-05T16:24:21.039Z,28.20
2019-03-05T16:26:56.778Z,28.20
2019-03-05T16:29:27.488Z,28.10
2019-03-05T16:32:01.203Z,28.10
2019-03-05T16:34:34.709Z,28.10
2019-03-05T16:37:08.687Z,28.10
2019-03-05T16:39:42.903Z,28.10
2019-03-05T16:42:17.964Z,28.10
2019-03-05T16:44:52.533Z,28.10
2019-03-05T16:47:26.553Z,28.10
2019-03-05T16:50:00.307Z,28.10
2019-03-05T16:52:34.293Z,28.10
2019-03-05T16:55:11.393Z,28.10
2019-03-05T16:57:45.191Z,28.10
2019-03-05T17:00:19.690Z,28.10
2019-03-05T17:02:54.166Z,28.10
2019-03-05T17:05:28.620Z,28.10
2019-03-05T17:08:02.765Z,28.10
2019-03-05T17:10:37.689Z,28.10
2019-03-05T17:13:10.233Z,28.10
2019-03-05T17:15:43.456Z,28.10
2019-03-05T17:18:16.189Z,28.10
2019-03-05T17:20:48.626Z,28.00
2019-03-05T17:23:21.211Z,28.00
2019-03-05T17:25:54.152Z,28.00
2019-03-05T17:28:27.773Z,27.90
2019-03-05T17:31:00.576Z,27.90
2019-03-05T17:33:33.138Z,27.90
2019-03-05T17:36:06.095Z,27.90
2019-03-05T17:38:38.866Z,27.90
2019-03-05T17:41:11.663Z,27.90
2019-03-05T17:43:44.339Z,27.80
2019-03-05T17:46:17.083Z,27.80
2019-03-05T17:48:49.373Z,27.90
2019-03-05T17:51:22.314Z,27.80
2019-03-05T17:53:55.113Z,27.80
2019-03-05T17:56:28.370Z,27.80
2019-03-05T17:59:01.246Z,27.70
2019-03-05T18:01:34.149Z,27.70
2019-03-05T18:04:06.884Z,27.70
2019-03-05T18:06:39.538Z,27.70
2019-03-05T18:09:12.069Z,27.60
2019-03-05T18:11:45.973Z,27.60
2019-03-05T18:14:19.060Z,27.60
2019-03-05T18:16:51.936Z,27.50
2019-03-05T18:19:24.500Z,27.50
2019-03-05T18:21:57.015Z,27.50
2019-03-05T18:24:29.675Z,27.50
2019-03-05T18:27:02.902Z,27.40
2019-03-05T18:29:36.105Z,27.40
2019-03-05T18:32:08.629Z,27.40
2019-03-05T18:34:40.939Z,27.30
2019-03-05T18:37:13.570Z,27.30
2019-03-05T18:39:46.076Z,27.20
2019-03-05T18:42:18.866Z,27.10
2019-03-05T18:44:51.172Z,27.10
2019-03-05T18:47:24.047Z,27.10
2019-03-05T18:49:57.716Z,27.10
2019-03-05T18:52:30.105Z,27.10
2019-03-05T18:55:02.720Z,27.10
2019-03-05T18:57:35.846Z,27.10
2019-03-05T19:00:10.907Z,27.10
2019-03-05T19:02:44.837Z,27.00
2019-03-05T19:05:19.552Z,27.00
2019-03-05T19:07:52.013Z,27.00
2019-03-05T19:10:26.322Z,27.00
2019-03-05T19:12:59.060Z,26.90
2019-03-05T19:15:32.311Z,27.00
2019-03-05T19:18:05.068Z,26.90
2019-03-05T19:20:37.522Z,26.80
2019-03-05T19:23:09.976Z,26.70
2019-03-05T19:25:44.671Z,26.80
2019-03-05T19:28:17.821Z,26.80
2019-03-05T19:30:52.965Z,26.80
2019-03-05T19:33:25.428Z,26.80
2019-03-05T19:35:57.889Z,26.70
2019-03-05T19:38:30.436Z,26.70
2019-03-05T19:41:02.952Z,26.70
2019-03-05T19:43:35.983Z,26.60
2019-03-05T19:46:08.778Z,26.70
2019-03-05T19:48:41.561Z,26.60
2019-03-05T19:51:14.057Z,26.50
2019-03-05T19:53:46.607Z,26.60
2019-03-05T19:56:18.899Z,26.60
2019-03-05T19:58:51.612Z,26.50
2019-03-05T20:01:25.221Z,26.50
2019-03-05T20:03:57.671Z,26.50
2019-03-05T20:06:30.267Z,26.50
2019-03-05T20:09:02.914Z,26.40
2019-03-05T20:11:36.533Z,26.30
2019-03-05T20:14:09.059Z,26.30
2019-03-05T20:16:41.682Z,26.30
2019-03-05T20:19:14.112Z,26.40
2019-03-05T20:21:46.878Z,26.30
2019-03-05T20:24:19.299Z,26.30
2019-03-05T20:26:52.009Z,26.30
2019-03-05T20:29:24.510Z,26.30
2019-03-05T20:31:56.952Z,26.30
2019-03-05T20:34:29.459Z,26.20
2019-03-05T20:37:02.148Z,26.20
2019-03-05T20:39:35.233Z,26.20
2019-03-05T20:42:07.877Z,26.20
2019-03-05T20:44:40.334Z,26.20
2019-03-05T20:47:13.098Z,26.20
2019-03-05T20:49:45.798Z,26.20
2019-03-05T20:52:18.442Z,26.20
2019-03-05T20:54:50.882Z,26.20
2019-03-05T20:57:24.072Z,26.20
2019-03-05T20:59:56.570Z,26.10
2019-03-05T21:02:29.184Z,26.10
2019-03-05T21:05:01.757Z,26.10
2019-03-05T21:07:34.704Z,26.10
2019-03-05T21:10:09.473Z,26.10
2019-03-05T21:12:43.573Z,26.00
2019-03-05T21:15:17.561Z,26.00
2019-03-05T21:17:52.721Z,26.00
2019-03-05T21:20:25.542Z,26.00
2019-03-05T21:22:58.149Z,25.90
2019-03-05T21:25:30.866Z,25.90
2019-03-05T21:28:03.319Z,25.80
2019-03-05T21:30:36.670Z,25.80
2019-03-05T21:33:09.284Z,25.80
2019-03-05T21:35:42.195Z,25.80
2019-03-05T21:38:14.603Z,25.70
2019-03-05T21:40:47.331Z,25.70
2019-03-05T21:43:19.679Z,25.70
2019-03-05T21:45:54.793Z,25.70
2019-03-05T21:48:27.123Z,25.70
2019-03-05T21:50:59.538Z,25.70
2019-03-05T21:53:32.040Z,25.70
2019-03-05T21:56:04.905Z,25.60
2019-03-05T21:58:37.316Z,25.60
2019-03-05T22:01:10.177Z,25.50
2019-03-05T22:03:42.773Z,25.60
2019-03-05T22:06:15.317Z,25.50
2019-03-05T22:08:47.873Z,25.50
2019-03-05T22:11:20.459Z,25.50
2019-03-05T22:13:52.697Z,25.50
2019-03-05T22:16:25.222Z,25.50
2019-03-05T22:18:57.531Z,25.40
2019-03-05T22:21:30.795Z,25.40
2019-03-05T22:24:03.379Z,25.40
2019-03-05T22:26:36.189Z,25.40
2019-03-05T22:29:08.685Z,25.40
2019-03-05T22:31:41.145Z,25.30
2019-03-05T22:34:13.623Z,25.30
2019-03-05T22:36:46.131Z,25.30
2019-03-05T22:39:19.724Z,25.20
2019-03-05T22:41:52.581Z,25.20
2019-03-05T22:44:25.100Z,25.20
2019-03-05T22:46:57.734Z,25.20
2019-03-05T22:49:30.511Z,25.20
2019-03-05T22:52:02.884Z,25.20
2019-03-05T22:54:35.637Z,25.10
2019-03-05T22:57:08.288Z,25.20
2019-03-05T22:59:40.643Z,25.20
2019-03-05T23:02:13.582Z,25.10
2019-03-05T23:04:46.399Z,25.10
2019-03-05T23:07:19.499Z,25.00
2019-03-05T23:09:53.603Z,25.00
2019-03-05T23:12:26.422Z,25.00
2019-03-05T23:14:59.373Z,25.10
2019-03-05T23:17:32.257Z,25.10
2019-03-05T23:20:04.988Z,25.10
2019-03-05T23:22:37.734Z,25.00
2019-03-05T23:25:12.396Z,24.90
2019-03-05T23:27:45.282Z,24.90
2019-03-05T23:30:20.320Z,24.80
2019-03-05T23:32:54.574Z,24.80
2019-03-05T23:35:27.075Z,24.70
2019-03-05T23:37:59.380Z,24.80
2019-03-05T23:40:31.882Z,24.80
2019-03-05T23:43:04.899Z,24.90
2019-03-05T23:45:37.395Z,24.90
2019-03-05T23:48:10.006Z,25.00
2019-03-05T23:50:42.595Z,25.00
2019-03-05T23:53:14.950Z,24.90
2019-03-05T23:55:47.593Z,25.10
2019-03-05T23:58:20.103Z,25.10
